createdAt,value
2019-04-06T00:00:20.109Z,23.17
2019-04-06T00:02:51.515Z,21.47
2019-04-06T00:05:22.133Z,24.23
2019-04-06T00:07:53.105Z,18.47
2019-04-06T00:10:24.596Z,16.87
2019-04-06T00:12:55.588Z,18.43
2019-04-06T00:15:26.658Z,20.53
2019-04-06T00:17:57.172Z,18.97
2019-04-06T00:20:28.101Z,18.13
2019-04-06T00:22:59.481Z,18.50
2019-04-06T00:25:30.148Z,20.87
2019-04-06T00:28:01.174Z,21.07
2019-04-06T00:30:35.352Z,21.47
2019-04-06T00:33:09.940Z,24.97
2019-04-06T00:35:41.033Z,24.43
2019-04-06T00:38:12.033Z,25.80
2019-04-06T00:40:43.088Z,23.33
2019-04-06T00:43:14.265Z,23.83
2019-04-06T00:45:45.285Z,25.53
2019-04-06T00:48:15.809Z,21.83
2019-04-06T00:50:47.513Z,22.73
2019-04-06T00:53:18.070Z,22.57
2019-04-06T00:55:55.521Z,21.27
2019-04-06T00:58:21.180Z,22.73
2019-04-06T01:00:52.548Z,21.07
2019-04-06T01:03:23.121Z,20.93
2019-04-06T01:05:54.060Z,20.13
2019-04-06T01:08:25.073Z,19.90
2019-04-06T01:10:56.030Z,21.20
2019-04-06T01:13:26.621Z,21.20
2019-04-06T01:15:57.184Z,22.40
2019-04-06T01:18:28.157Z,19.40
2019-04-06T01:20:59.085Z,21.50
2019-04-06T01:23:29.713Z,20.33
2019-04-06T01:26:07.214Z,19.57
2019-04-06T01:28:32.864Z,24.43
2019-04-06T01:31:03.848Z,24.20
2019-04-06T01:33:35.480Z,21.40
2019-04-06T01:36:06.144Z,23.30
2019-04-06T01:38:36.664Z,21.93
2019-04-06T01:41:07.178Z,25.43
2019-04-06T01:43:37.813Z,21.67
2019-04-06T01:46:08.350Z,21.10
2019-04-06T01:48:39.000Z,22.67
2019-04-06T01:51:09.591Z,22.20
2019-04-06T01:53:40.582Z,22.37
2019-04-06T01:56:18.403Z,22.67
2019-04-06T01:58:43.682Z,22.50
2019-04-06T02:01:22.188Z,23.57
2019-04-06T02:03:52.708Z,24.73
2019-04-06T02:06:23.264Z,24.70
2019-04-06T02:08:54.314Z,23.77
2019-04-06T02:11:24.804Z,25.53
2019-04-06T02:13:55.346Z,26.47
2019-04-06T02:16:26.306Z,25.07
2019-04-06T02:18:57.337Z,26.43
2019-04-06T02:21:28.294Z,25.80
2019-04-06T02:23:58.892Z,24.57
2019-04-06T02:26:31.046Z,28.27
2019-04-06T02:29:01.586Z,26.73
2019-04-06T02:31:51.048Z,25.27
2019-04-06T02:34:43.490Z,23.53
2019-04-06T02:37:35.962Z,23.10
2019-04-06T02:40:12.613Z,23.13
2019-04-06T02:42:49.896Z,24.30
2019-04-06T02:45:20.434Z,21.13
2019-04-06T02:47:51.081Z,26.00
2019-04-06T02:50:21.642Z,24.97
2019-04-06T02:52:52.698Z,23.07
2019-04-06T02:55:23.228Z,22.87
2019-04-06T02:57:53.817Z,25.33
2019-04-06T03:00:24.389Z,22.40
2019-04-06T03:02:54.932Z,21.97
2019-04-06T03:05:25.900Z,24.03
2019-04-06T03:07:56.473Z,20.87
2019-04-06T03:10:27.477Z,24.53
2019-04-06T03:12:58.030Z,23.97
2019-04-06T03:15:28.736Z,25.03
2019-04-06T03:17:59.765Z,23.10
2019-04-06T03:20:30.314Z,24.17
2019-04-06T03:23:01.210Z,23.53
2019-04-06T03:25:32.953Z,23.77
2019-04-06T03:28:03.963Z,24.27
2019-04-06T03:30:34.739Z,24.73
2019-04-06T03:33:05.633Z,25.57
2019-04-06T03:35:36.352Z,25.80
2019-04-06T03:38:06.877Z,23.87
2019-04-06T03:40:37.574Z,23.50
2019-04-06T03:43:08.199Z,22.33
2019-04-06T03:45:38.762Z,24.53
2019-04-06T03:48:09.764Z,22.40
2019-04-06T03:50:40.964Z,23.73
2019-04-06T03:53:11.686Z,22.17
2019-04-06T03:55:42.191Z,25.20
2019-04-06T03:58:12.761Z,23.33
2019-04-06T04:00:44.533Z,21.40
2019-04-06T04:03:15.188Z,22.03
2019-04-06T04:05:45.819Z,24.97
2019-04-06T04:08:16.600Z,23.90
2019-04-06T04:10:48.000Z,22.47
2019-04-06T04:13:18.722Z,19.77
2019-04-06T04:15:49.373Z,23.13
2019-04-06T04:18:20.135Z,19.93
2019-04-06T04:20:51.156Z,22.93
2019-04-06T04:23:21.714Z,23.43
2019-04-06T04:25:52.242Z,26.50
2019-04-06T04:28:22.830Z,21.33
2019-04-06T04:30:53.403Z,23.60
2019-04-06T04:33:23.962Z,19.53
2019-04-06T04:35:55.414Z,18.73
2019-04-06T04:38:26.392Z,20.97
2019-04-06T04:40:59.025Z,20.17
2019-04-06T04:43:29.779Z,20.83
2019-04-06T04:46:00.910Z,19.13
2019-04-06T04:48:31.474Z,19.00
2019-04-06T04:51:02.560Z,22.87
2019-04-06T04:53:33.594Z,22.63
2019-04-06T04:56:04.279Z,21.30
2019-04-06T04:58:34.989Z,19.30
2019-04-06T05:01:05.657Z,20.03
2019-04-06T05:03:36.278Z,18.37
2019-04-06T05:06:06.931Z,25.63
2019-04-06T05:08:37.806Z,29.30
2019-04-06T05:11:08.731Z,28.00
2019-04-06T05:13:39.218Z,24.53
2019-04-06T05:16:14.076Z,26.90
2019-04-06T05:18:45.012Z,39.43
2019-04-06T05:21:15.730Z,25.23
2019-04-06T05:23:46.633Z,25.30
2019-04-06T05:26:17.797Z,31.50
2019-04-06T05:28:48.888Z,34.43
2019-04-06T05:31:19.405Z,35.57
2019-04-06T05:33:50.525Z,34.47
2019-04-06T05:36:21.121Z,32.37
2019-04-06T05:38:51.628Z,28.20
2019-04-06T05:41:22.671Z,26.27
2019-04-06T05:43:53.308Z,29.47
2019-04-06T05:46:23.857Z,27.70
2019-04-06T05:48:54.805Z,31.80
2019-04-06T05:51:25.277Z,36.00
2019-04-06T05:53:55.946Z,29.43
2019-04-06T05:56:26.621Z,31.67
2019-04-06T05:58:57.748Z,26.97
2019-04-06T06:01:28.664Z,27.33
2019-04-06T06:03:59.373Z,31.17
2019-04-06T06:06:30.567Z,31.43
2019-04-06T06:09:01.184Z,30.20
2019-04-06T06:11:36.446Z,34.10
2019-04-06T06:14:07.409Z,37.77
2019-04-06T06:16:37.987Z,36.43
2019-04-06T06:19:11.310Z,33.37
2019-04-06T06:21:42.082Z,31.80
2019-04-06T06:24:13.225Z,36.13
2019-04-06T06:26:43.788Z,35.43
2019-04-06T06:29:14.842Z,38.70
2019-04-06T06:31:46.390Z,40.53
2019-04-06T06:34:18.026Z,42.33
2019-04-06T06:36:48.764Z,42.57
2019-04-06T06:39:19.704Z,35.47
2019-04-06T06:41:50.861Z,41.07
2019-04-06T06:44:22.308Z,38.13
2019-04-06T06:46:53.363Z,35.17
2019-04-06T06:49:26.053Z,44.90
2019-04-06T06:51:56.770Z,36.30
2019-04-06T06:54:27.923Z,43.73
2019-04-06T06:56:58.452Z,43.73
2019-04-06T06:59:29.437Z,41.43
2019-04-06T07:02:00.149Z,38.37
2019-04-06T07:04:31.294Z,42.63
2019-04-06T07:07:02.149Z,38.33
2019-04-06T07:09:33.099Z,42.40
2019-04-06T07:12:07.078Z,42.40
2019-04-06T07:14:38.525Z,43.03
2019-04-06T07:17:09.271Z,41.70
2019-04-06T07:19:39.843Z,36.10
2019-04-06T07:22:10.524Z,34.17
2019-04-06T07:24:41.147Z,35.00
2019-04-06T07:27:11.846Z,44.23
2019-04-06T07:29:42.402Z,42.70
2019-04-06T07:32:12.973Z,37.33
2019-04-06T07:34:43.876Z,44.83
2019-04-06T07:37:14.423Z,36.37
2019-04-06T07:39:47.561Z,38.17
2019-04-06T07:42:19.025Z,34.23
2019-04-06T07:44:50.536Z,32.90
2019-04-06T07:47:21.492Z,39.00
2019-04-06T07:49:52.554Z,39.83
2019-04-06T07:52:23.096Z,31.57
2019-04-06T07:54:54.670Z,39.73
2019-04-06T07:57:25.797Z,42.27
2019-04-06T07:59:57.769Z,36.33
2019-04-06T08:02:28.465Z,35.23
2019-04-06T08:05:00.446Z,37.67
2019-04-06T08:07:31.631Z,42.60
2019-04-06T08:10:02.725Z,42.60
2019-04-06T08:12:33.578Z,38.40
2019-04-06T08:15:04.248Z,36.67
2019-04-06T08:17:35.586Z,40.30
2019-04-06T08:20:08.019Z,40.43
2019-04-06T08:22:38.775Z,39.17
2019-04-06T08:25:09.560Z,38.53
2019-04-06T08:27:41.009Z,39.20
2019-04-06T08:30:12.277Z,40.10
2019-04-06T08:32:42.845Z,38.23
2019-04-06T08:35:24.151Z,39.80
2019-04-06T08:37:46.119Z,38.70
2019-04-06T08:40:17.593Z,36.40
2019-04-06T08:42:48.209Z,35.53
2019-04-06T08:45:19.644Z,31.43
2019-04-06T08:47:50.221Z,34.13
2019-04-06T08:50:20.984Z,29.70
2019-04-06T08:52:51.611Z,37.23
2019-04-06T08:55:22.783Z,34.30
2019-04-06T08:57:53.477Z,35.67
2019-04-06T09:00:25.511Z,36.03
2019-04-06T09:02:57.922Z,40.80
2019-04-06T09:05:31.550Z,30.50
2019-04-06T09:08:03.260Z,31.13
2019-04-06T09:10:33.974Z,36.17
2019-04-06T09:13:04.888Z,34.63
2019-04-06T09:15:37.402Z,32.57
2019-04-06T09:18:11.918Z,31.90
2019-04-06T09:20:42.472Z,28.57
2019-04-06T09:23:13.545Z,27.37
2019-04-06T09:25:47.152Z,34.37
2019-04-06T09:28:19.485Z,34.50
2019-04-06T09:30:50.381Z,36.07
2019-04-06T09:33:21.345Z,34.23
2019-04-06T09:35:52.265Z,31.10
2019-04-06T09:38:23.953Z,30.00
2019-04-06T09:40:55.106Z,27.70
2019-04-06T09:43:26.188Z,31.60
2019-04-06T09:46:25.040Z,26.70
2019-04-06T09:49:01.617Z,30.10
2019-04-06T09:52:03.171Z,28.03
2019-04-06T09:54:49.623Z,25.90
2019-04-06T09:57:38.165Z,27.97
2019-04-06T10:00:26.293Z,28.33
2019-04-06T10:03:22.223Z,22.70
2019-04-06T10:06:10.271Z,22.93
2019-04-06T10:08:53.093Z,21.80
2019-04-06T10:11:36.781Z,23.63
2019-04-06T10:14:29.688Z,22.37
2019-04-06T10:17:21.740Z,23.40
2019-04-06T10:20:11.228Z,26.00
2019-04-06T10:23:00.112Z,23.20
2019-04-06T10:25:48.649Z,21.70
2019-04-06T10:28:36.513Z,20.63
2019-04-06T10:31:36.088Z,23.20
2019-04-06T10:34:19.845Z,23.40
2019-04-06T10:37:14.960Z,20.10
2019-04-06T10:39:56.532Z,21.30
2019-04-06T10:42:57.625Z,18.43
2019-04-06T10:45:57.104Z,20.33
2019-04-06T10:49:01.637Z,19.40
2019-04-06T10:51:52.323Z,20.30
2019-04-06T10:54:48.429Z,22.27
2019-04-06T10:57:32.434Z,19.07
2019-04-06T11:00:34.170Z,17.47
2019-04-06T11:03:29.763Z,16.23
2019-04-06T11:06:15.318Z,18.73
2019-04-06T11:08:57.882Z,18.57
2019-04-06T11:12:00.247Z,18.00
2019-04-06T11:14:53.639Z,21.07
2019-04-06T11:17:42.355Z,18.80
2019-04-06T11:20:41.516Z,21.80
2019-04-06T11:23:46.403Z,19.87
2019-04-06T11:26:44.789Z,21.97
2019-04-06T11:29:23.527Z,22.07
2019-04-06T11:32:01.987Z,19.90
2019-04-06T11:34:54.910Z,19.67
2019-04-06T11:38:02.501Z,17.67
2019-04-06T11:40:47.721Z,17.87
2019-04-06T11:43:53.753Z,18.87
2019-04-06T11:46:52.778Z,19.70
2019-04-06T11:49:35.198Z,18.53
2019-04-06T11:52:22.797Z,18.17
2019-04-06T11:55:00.436Z,16.53
2019-04-06T11:57:47.528Z,17.07
2019-04-06T12:00:27.498Z,17.47
2019-04-06T12:03:20.380Z,16.23
2019-04-06T12:06:12.835Z,16.10
2019-04-06T12:09:08.229Z,16.75
2019-04-06T12:11:58.369Z,17.73
2019-04-06T12:14:45.249Z,14.58
2019-04-06T12:17:38.116Z,19.60
2019-04-06T12:20:41.476Z,18.03
2019-04-06T12:23:33.825Z,17.48
2019-04-06T12:26:23.929Z,18.10
2019-04-06T12:29:32.327Z,19.47
2019-04-06T12:32:33.900Z,16.97
2019-04-06T12:35:24.615Z,16.23
2019-04-06T12:38:15.544Z,18.00
2019-04-06T12:41:03.699Z,19.87
2019-04-06T12:43:52.166Z,17.27
2019-04-06T12:46:32.982Z,17.67
2019-04-06T12:49:40.552Z,15.30
2019-04-06T12:52:49.058Z,13.55
2019-04-06T12:55:28.389Z,15.65
2019-04-06T12:58:23.740Z,14.45
2019-04-06T13:01:13.738Z,14.43
2019-04-06T13:04:13.091Z,14.78
2019-04-06T13:07:01.747Z,12.43
2019-04-06T13:09:51.224Z,13.48
2019-04-06T13:12:39.990Z,14.33
2019-04-06T13:15:38.534Z,13.28
2019-04-06T13:18:25.262Z,10.45
2019-04-06T13:21:14.227Z,11.43
2019-04-06T13:24:07.370Z,10.28
2019-04-06T13:26:45.422Z,11.47
2019-04-06T13:29:33.775Z,11.10
2019-04-06T13:32:17.296Z,10.55
2019-04-06T13:35:04.669Z,11.07
2019-04-06T13:37:53.770Z,10.65
2019-04-06T13:40:55.563Z,10.40
2019-04-06T13:43:33.580Z,9.67
2019-04-06T13:46:31.805Z,9.38
2019-04-06T13:49:19.897Z,10.25
2019-04-06T13:52:15.958Z,10.30
2019-04-06T13:55:13.563Z,8.90
2019-04-06T13:58:20.112Z,7.85
2019-04-06T14:01:32.975Z,10.82
2019-04-06T14:04:28.228Z,9.68
2019-04-06T14:07:16.520Z,11.05
2019-04-06T14:10:05.436Z,9.60
2019-04-06T14:13:01.167Z,9.93
2019-04-06T14:15:56.802Z,8.33
2019-04-06T14:18:40.309Z,7.35
2019-04-06T14:21:20.263Z,9.00
2019-04-06T14:24:11.109Z,8.05
2019-04-06T14:27:00.817Z,6.45
2019-04-06T14:29:59.208Z,8.68
2019-04-06T14:32:39.654Z,7.58
2019-04-06T14:35:29.458Z,7.40
2019-04-06T14:38:24.776Z,7.33
2019-04-06T14:41:29.996Z,8.43
2019-04-06T14:44:18.123Z,6.85
2019-04-06T14:47:17.040Z,8.00
2019-04-06T14:50:02.491Z,8.48
2019-04-06T14:52:51.600Z,7.00
2019-04-06T14:55:53.598Z,7.20
2019-04-06T14:58:41.305Z,7.05
2019-04-06T15:01:43.615Z,8.35
2019-04-06T15:04:18.955Z,8.05
2019-04-06T15:07:12.941Z,8.45
2019-04-06T15:10:02.209Z,8.08
2019-04-06T15:12:51.502Z,8.80
2019-04-06T15:15:35.195Z,8.10
2019-04-06T15:18:21.557Z,7.37
2019-04-06T15:21:25.530Z,6.93
2019-04-06T15:24:07.757Z,7.30
2019-04-06T15:26:47.356Z,7.33
2019-04-06T15:29:37.505Z,7.57
2019-04-06T15:32:27.315Z,7.43
2019-04-06T15:35:32.211Z,7.43
2019-04-06T15:38:20.607Z,7.63
2019-04-06T15:41:11.239Z,7.67
2019-04-06T15:44:03.955Z,8.87
2019-04-06T15:46:55.410Z,7.27
2019-04-06T15:49:47.727Z,8.57
2019-04-06T15:52:27.987Z,7.67
2019-04-06T15:55:17.610Z,8.20
2019-04-06T15:58:16.404Z,8.23
2019-04-06T16:01:05.338Z,7.77
2019-04-06T16:03:53.897Z,7.30
2019-04-06T16:07:01.944Z,7.07
2019-04-06T16:09:57.678Z,8.17
2019-04-06T16:12:42.157Z,6.93
2019-04-06T16:15:35.983Z,6.93
2019-04-06T16:18:15.680Z,7.70
2019-04-06T16:21:20.925Z,7.70
2019-04-06T16:24:17.035Z,6.43
2019-04-06T16:27:07.075Z,6.60
2019-04-06T16:30:09.587Z,5.80
2019-04-06T16:32:52.451Z,5.73
2019-04-06T16:35:41.996Z,6.70
2019-04-06T16:38:41.004Z,5.40
2019-04-06T16:41:26.764Z,7.40
2019-04-06T16:44:19.816Z,6.77
2019-04-06T16:47:17.408Z,6.20
2019-04-06T16:50:03.804Z,7.80
2019-04-06T16:53:06.792Z,8.23
2019-04-06T16:55:56.241Z,8.30
2019-04-06T16:58:54.549Z,10.50
2019-04-06T17:01:40.624Z,8.70
2019-04-06T17:04:42.120Z,9.00
2019-04-06T17:07:46.540Z,7.73
2019-04-06T17:10:51.244Z,7.93
2019-04-06T17:13:39.859Z,8.80
2019-04-06T17:16:28.464Z,9.47
2019-04-06T17:19:21.407Z,7.23
2019-04-06T17:21:58.634Z,8.50
2019-04-06T17:24:50.907Z,8.83
2019-04-06T17:27:46.535Z,9.33
2019-04-06T17:30:27.456Z,8.67
2019-04-06T17:33:26.304Z,8.33
2019-04-06T17:36:25.239Z,9.90
2019-04-06T17:39:08.946Z,10.20
2019-04-06T17:41:59.633Z,8.40
2019-04-06T17:44:52.056Z,8.57
2019-04-06T17:47:34.856Z,9.23
2019-04-06T17:50:19.279Z,9.20
2019-04-06T17:53:05.008Z,8.23
2019-04-06T17:55:55.110Z,9.37
2019-04-06T17:58:47.433Z,7.83
2019-04-06T18:01:40.033Z,7.97
2019-04-06T18:04:28.295Z,9.13
2019-04-06T18:07:16.688Z,8.20
2019-04-06T18:09:56.028Z,8.30
2019-04-06T18:12:52.019Z,7.77
2019-04-06T18:15:23.856Z,8.27
2019-04-06T18:17:56.104Z,7.87
2019-04-06T18:20:27.638Z,6.67
2019-04-06T18:22:59.450Z,7.63
2019-04-06T18:25:30.490Z,8.80
2019-04-06T18:28:01.497Z,7.33
2019-04-06T18:30:33.169Z,7.10
2019-04-06T18:33:07.308Z,6.80
2019-04-06T18:35:38.839Z,6.63
2019-04-06T18:38:28.900Z,6.97
2019-04-06T18:40:59.484Z,8.70
2019-04-06T18:43:30.540Z,6.40
2019-04-06T18:46:01.283Z,7.77
2019-04-06T18:48:31.842Z,7.13
2019-04-06T18:51:03.326Z,5.60
2019-04-06T18:53:34.360Z,6.73
2019-04-06T18:56:05.256Z,5.73
2019-04-06T18:58:35.825Z,5.67
2019-04-06T19:01:06.500Z,6.03
2019-04-06T19:03:37.288Z,5.23
2019-04-06T19:06:08.881Z,4.93
2019-04-06T19:08:40.855Z,5.83
2019-04-06T19:11:11.665Z,6.07
2019-04-06T19:13:42.687Z,5.83
2019-04-06T19:16:17.017Z,5.00
2019-04-06T19:18:46.714Z,5.17
2019-04-06T19:21:17.584Z,7.57
2019-04-06T19:23:49.435Z,5.07
2019-04-06T19:26:20.648Z,5.07
2019-04-06T19:28:52.840Z,5.67
2019-04-06T19:31:23.714Z,5.73
2019-04-06T19:33:54.877Z,6.00
2019-04-06T19:36:26.319Z,5.87
2019-04-06T19:38:57.818Z,6.13
2019-04-06T19:41:28.582Z,7.43
2019-04-06T19:44:01.191Z,5.83
2019-04-06T19:46:32.882Z,5.83
2019-04-06T19:49:04.112Z,5.90
2019-04-06T19:51:50.031Z,5.00
2019-04-06T19:54:27.825Z,5.33
2019-04-06T19:56:59.036Z,5.33
2019-04-06T19:59:29.576Z,6.40
2019-04-06T20:02:00.837Z,5.77
2019-04-06T20:04:31.897Z,5.93
2019-04-06T20:07:02.585Z,6.07
2019-04-06T20:09:33.626Z,5.60
2019-04-06T20:12:07.474Z,5.03
2019-04-06T20:14:37.897Z,5.53
2019-04-06T20:17:09.597Z,5.93
2019-04-06T20:19:40.871Z,5.70
2019-04-06T20:22:14.870Z,5.27
2019-04-06T20:24:45.602Z,6.23
2019-04-06T20:27:16.361Z,5.60
2019-04-06T20:29:47.301Z,6.13
2019-04-06T20:32:18.728Z,6.03
2019-04-06T20:34:50.477Z,5.17
2019-04-06T20:37:25.196Z,6.03
2019-04-06T20:39:55.971Z,6.37
2019-04-06T20:42:27.006Z,6.53
2019-04-06T20:44:58.062Z,6.53
2019-04-06T20:47:28.976Z,6.23
2019-04-06T20:50:09.259Z,5.43
2019-04-06T20:52:40.613Z,6.03
2019-04-06T20:55:12.415Z,5.70
2019-04-06T20:57:43.933Z,4.90
2019-04-06T21:00:14.617Z,5.33
2019-04-06T21:02:45.612Z,4.83
2019-04-06T21:05:16.732Z,5.23
2019-04-06T21:07:47.417Z,5.87
2019-04-06T21:10:19.074Z,5.23
2019-04-06T21:12:50.191Z,4.63
2019-04-06T21:15:22.707Z,5.20
2019-04-06T21:17:53.873Z,4.90
2019-04-06T21:20:24.388Z,4.50
2019-04-06T21:22:56.404Z,4.57
2019-04-06T21:25:28.053Z,5.20
2019-04-06T21:27:58.586Z,4.20
2019-04-06T21:30:29.181Z,4.97
2019-04-06T21:32:59.971Z,4.03
2019-04-06T21:35:31.731Z,5.87
2019-04-06T21:38:02.360Z,4.97
2019-04-06T21:40:33.126Z,3.90
2019-04-06T21:43:04.162Z,4.47
2019-04-06T21:45:35.475Z,3.63
2019-04-06T21:48:12.129Z,4.30
2019-04-06T21:50:43.652Z,4.33
2019-04-06T21:53:15.043Z,4.07
2019-04-06T21:56:00.553Z,4.42
2019-04-06T21:58:25.511Z,4.33
2019-04-06T22:01:00.455Z,4.63
2019-04-06T22:03:34.729Z,4.63
2019-04-06T22:06:05.143Z,3.80
2019-04-06T22:08:36.323Z,3.70
2019-04-06T22:11:07.765Z,4.33
2019-04-06T22:13:38.831Z,3.37
2019-04-06T22:16:11.438Z,3.30
2019-04-06T22:18:43.026Z,3.30
2019-04-06T22:21:14.637Z,3.73
2019-04-06T22:23:46.069Z,3.30
2019-04-06T22:26:18.500Z,3.67
2019-04-06T22:28:50.797Z,2.87
2019-04-06T22:31:22.420Z,3.07
2019-04-06T22:33:52.911Z,2.93
2019-04-06T22:36:23.500Z,2.60
2019-04-06T22:38:54.025Z,3.17
2019-04-06T22:41:25.061Z,3.03
2019-04-06T22:43:56.115Z,3.67
2019-04-06T22:46:26.664Z,3.47
2019-04-06T22:48:57.684Z,2.97
2019-04-06T22:51:28.302Z,3.80
2019-04-06T22:53:59.476Z,5.33
2019-04-06T22:56:31.080Z,2.70
2019-04-06T22:59:01.662Z,3.67
2019-04-06T23:01:33.620Z,2.37
2019-04-06T23:04:49.515Z,3.53
2019-04-06T23:07:19.002Z,3.27
2019-04-06T23:09:49.486Z,2.60
2019-04-06T23:12:21.124Z,2.57
2019-04-06T23:14:52.109Z,2.33
2019-04-06T23:17:22.574Z,2.70
2019-04-06T23:19:53.253Z,2.67
2019-04-06T23:22:24.006Z,2.30
2019-04-06T23:24:54.782Z,2.20
2019-04-06T23:27:27.010Z,2.13
2019-04-06T23:29:57.613Z,2.80
2019-04-06T23:32:28.495Z,2.40
2019-04-06T23:35:02.243Z,2.40
2019-04-06T23:37:33.367Z,2.40
2019-04-06T23:40:05.393Z,2.10
2019-04-06T23:42:36.473Z,3.10
2019-04-06T23:45:07.682Z,2.83
2019-04-06T23:47:38.771Z,2.03
2019-04-06T23:50:09.389Z,2.40
2019-04-06T23:52:41.020Z,3.07
2019-04-06T23:55:11.987Z,3.60
2019-04-06T23:57:42.931Z,3.63
